AAL3308 KDFW-KMIA
Flight info
| Callsign | AAL3308 |
|---|---|
| Flight time | 2h 10m |
| Altitude | 35000 |
| Route | MRSSH3 BDDAY AEX HRV Q105 BLVNS Y290 DOWRY FROGZ5 |
| Aircraft | A321/M-SDE3FGHIRWY/LB1 |
Departure
| Time | 2026-05-07 23:11 |
|---|---|
| Airport | Dallas Fort Worth International Airport (KDFW) |
Arrival
| Time | 2026-05-08 01:21 |
|---|---|
| Airport | Miami International Airport (KMIA) |
| Time | Latitude | Longitude | Altitude | Speed | Heading |
|---|---|---|---|---|---|
| 2026-05-07 22:29 | 32.89843 | -97.03526 | 583 ft | 0 kts | 273° |
| 2026-05-07 22:58 | 32.89842 | -97.03522 | 583 ft | 2 kts | 273° |
| 2026-05-07 22:58 | 32.89841 | -97.03505 | 583 ft | 2 kts | 273° |
| 2026-05-07 22:58 | 32.89841 | -97.03491 | 583 ft | 0 kts | 273° |
| 2026-05-07 22:59 | 32.89841 | -97.03475 | 583 ft | 2 kts | 253° |
| 2026-05-07 22:59 | 32.89848 | -97.03459 | 582 ft | 2 kts | 233° |
| 2026-05-07 22:59 | 32.89859 | -97.03447 | 582 ft | 2 kts | 211° |
| 2026-05-07 22:59 | 32.89873 | -97.03440 | 582 ft | 2 kts | 189° |
| 2026-05-07 23:00 | 32.89888 | -97.03440 | 583 ft | 2 kts | 168° |
| 2026-05-07 23:00 | 32.89902 | -97.03446 | 583 ft | 2 kts | 147° |
| 2026-05-07 23:00 | 32.89909 | -97.03453 | 583 ft | 1 kts | 134° |
| 2026-05-07 23:00 | 32.89913 | -97.03458 | 583 ft | 0 kts | 132° |
| 2026-05-07 23:03 | 32.89901 | -97.03436 | 583 ft | 5 kts | 113° |
| 2026-05-07 23:03 | 32.89896 | -97.03383 | 582 ft | 7 kts | 90° |
| 2026-05-07 23:04 | 32.89877 | -97.03318 | 580 ft | 9 kts | 150° |
| 2026-05-07 23:04 | 32.89803 | -97.03316 | 579 ft | 11 kts | 184° |
| 2026-05-07 23:04 | 32.89723 | -97.03318 | 578 ft | 11 kts | 179° |
| 2026-05-07 23:04 | 32.89637 | -97.03316 | 578 ft | 12 kts | 179° |
| 2026-05-07 23:05 | 32.89546 | -97.03316 | 577 ft | 13 kts | 181° |
| 2026-05-07 23:05 | 32.89450 | -97.03319 | 576 ft | 14 kts | 181° |
| 2026-05-07 23:05 | 32.89352 | -97.03321 | 575 ft | 14 kts | 179° |
| 2026-05-07 23:05 | 32.89251 | -97.03319 | 574 ft | 14 kts | 179° |
| 2026-05-07 23:06 | 32.89148 | -97.03317 | 574 ft | 14 kts | 180° |
| 2026-05-07 23:06 | 32.89045 | -97.03317 | 573 ft | 14 kts | 181° |
| 2026-05-07 23:06 | 32.88943 | -97.03320 | 573 ft | 14 kts | 181° |
| 2026-05-07 23:06 | 32.88840 | -97.03321 | 572 ft | 14 kts | 181° |
| 2026-05-07 23:07 | 32.88736 | -97.03323 | 572 ft | 14 kts | 180° |
| 2026-05-07 23:07 | 32.88631 | -97.03323 | 571 ft | 14 kts | 180° |
| 2026-05-07 23:07 | 32.88528 | -97.03318 | 571 ft | 14 kts | 166° |
| 2026-05-07 23:07 | 32.88430 | -97.03288 | 570 ft | 14 kts | 177° |
| 2026-05-07 23:08 | 32.88327 | -97.03282 | 569 ft | 15 kts | 178° |
| 2026-05-07 23:08 | 32.88221 | -97.03283 | 568 ft | 15 kts | 181° |
| 2026-05-07 23:08 | 32.88113 | -97.03288 | 568 ft | 15 kts | 182° |
| 2026-05-07 23:08 | 32.88018 | -97.03291 | 566 ft | 9 kts | 177° |
| 2026-05-07 23:09 | 32.87979 | -97.03234 | 566 ft | 10 kts | 97° |
| 2026-05-07 23:09 | 32.87976 | -97.03149 | 566 ft | 10 kts | 91° |
| 2026-05-07 23:09 | 32.87975 | -97.03063 | 567 ft | 10 kts | 87° |
| 2026-05-07 23:09 | 32.88021 | -97.03010 | 567 ft | 10 kts | 6° |
| 2026-05-07 23:10 | 32.88170 | -97.03009 | 568 ft | 49 kts | 0° |
| 2026-05-07 23:10 | 32.88741 | -97.03003 | 569 ft | 113 kts | 360° |
| 2026-05-07 23:10 | 32.89730 | -97.02998 | 572 ft | 168 kts | 360° |
| 2026-05-07 23:10 | 32.91010 | -97.02985 | 892 ft | 187 kts | 2° |
| 2026-05-07 23:11 | 32.92207 | -97.02915 | 1773 ft | 168 kts | 3° |
| 2026-05-07 23:11 | 32.93369 | -97.02835 | 2105 ft | 171 kts | 13° |
| 2026-05-07 23:11 | 32.94543 | -97.02448 | 2343 ft | 180 kts | 20° |
| 2026-05-07 23:11 | 32.95768 | -97.01965 | 2578 ft | 191 kts | 19° |
| 2026-05-07 23:12 | 32.97089 | -97.01463 | 2826 ft | 203 kts | 18° |
| 2026-05-07 23:12 | 32.98491 | -97.00960 | 3079 ft | 216 kts | 18° |
| 2026-05-07 23:12 | 32.99979 | -97.00369 | 3255 ft | 235 kts | 30° |
| 2026-05-07 23:12 | 33.01219 | -96.99048 | 3532 ft | 248 kts | 58° |
| 2026-05-07 23:13 | 33.01791 | -96.97075 | 3866 ft | 261 kts | 86° |
| 2026-05-07 23:13 | 33.01652 | -96.94899 | 4403 ft | 268 kts | 96° |
| 2026-05-07 23:13 | 33.01428 | -96.92682 | 4957 ft | 274 kts | 96° |
| 2026-05-07 23:13 | 33.01228 | -96.90404 | 5521 ft | 280 kts | 95° |
| 2026-05-07 23:14 | 33.01045 | -96.88081 | 6125 ft | 285 kts | 96° |
| 2026-05-07 23:14 | 33.00559 | -96.85793 | 6697 ft | 290 kts | 114° |
| 2026-05-07 23:14 | 32.99556 | -96.83708 | 7295 ft | 293 kts | 126° |
| 2026-05-07 23:14 | 32.98383 | -96.81719 | 7901 ft | 297 kts | 128° |
| 2026-05-07 23:15 | 32.97173 | -96.79721 | 8493 ft | 300 kts | 128° |
| 2026-05-07 23:15 | 32.95951 | -96.77694 | 9082 ft | 304 kts | 128° |
| 2026-05-07 23:15 | 32.94721 | -96.75637 | 9676 ft | 308 kts | 129° |
| 2026-05-07 23:15 | 32.93482 | -96.73554 | 10223 ft | 311 kts | 129° |
| 2026-05-07 23:16 | 32.92208 | -96.71410 | 10529 ft | 325 kts | 129° |
| 2026-05-07 23:16 | 32.90878 | -96.69167 | 10795 ft | 339 kts | 129° |
| 2026-05-07 23:16 | 32.89494 | -96.66830 | 11088 ft | 352 kts | 128° |
| 2026-05-07 23:16 | 32.88077 | -96.64430 | 11560 ft | 358 kts | 128° |
| 2026-05-07 23:17 | 32.86644 | -96.62003 | 12093 ft | 361 kts | 128° |
| 2026-05-07 23:17 | 32.85197 | -96.59549 | 12592 ft | 366 kts | 128° |
| 2026-05-07 23:17 | 32.83731 | -96.57068 | 13092 ft | 369 kts | 128° |
| 2026-05-07 23:17 | 32.82250 | -96.54562 | 13588 ft | 373 kts | 128° |
| 2026-05-07 23:18 | 32.80755 | -96.52036 | 14101 ft | 376 kts | 128° |
| 2026-05-07 23:18 | 32.79248 | -96.49489 | 14610 ft | 379 kts | 129° |
| 2026-05-07 23:18 | 32.77728 | -96.46922 | 15098 ft | 383 kts | 129° |
| 2026-05-07 23:18 | 32.76191 | -96.44332 | 15576 ft | 386 kts | 129° |
| 2026-05-07 23:19 | 32.74641 | -96.41720 | 16052 ft | 389 kts | 129° |
| 2026-05-07 23:19 | 32.73081 | -96.39095 | 16558 ft | 391 kts | 129° |
| 2026-05-07 23:19 | 32.71511 | -96.36450 | 17018 ft | 394 kts | 129° |
| 2026-05-07 23:19 | 32.70153 | -96.33599 | 17465 ft | 403 kts | 116° |
| 2026-05-07 23:20 | 32.69384 | -96.30380 | 17888 ft | 411 kts | 101° |
| 2026-05-07 23:20 | 32.69094 | -96.26999 | 18318 ft | 415 kts | 96° |
| 2026-05-07 23:20 | 32.68911 | -96.23572 | 18679 ft | 420 kts | 95° |
| 2026-05-07 23:20 | 32.68736 | -96.20156 | 19062 ft | 423 kts | 95° |
| 2026-05-07 23:21 | 32.68541 | -96.16671 | 19455 ft | 426 kts | 95° |
| 2026-05-07 23:21 | 32.68325 | -96.13158 | 19839 ft | 429 kts | 96° |
| 2026-05-07 23:21 | 32.68100 | -96.09622 | 20207 ft | 433 kts | 96° |
| 2026-05-07 23:21 | 32.67861 | -96.06056 | 20564 ft | 436 kts | 96° |
| 2026-05-07 23:22 | 32.67615 | -96.02468 | 20933 ft | 439 kts | 96° |
| 2026-05-07 23:22 | 32.67373 | -95.98850 | 21276 ft | 443 kts | 95° |
| 2026-05-07 23:22 | 32.67125 | -95.95212 | 21637 ft | 445 kts | 96° |
| 2026-05-07 23:22 | 32.66874 | -95.91547 | 21959 ft | 449 kts | 95° |
| 2026-05-07 23:23 | 32.66622 | -95.87856 | 22287 ft | 452 kts | 96° |
| 2026-05-07 23:23 | 32.66365 | -95.84142 | 22640 ft | 454 kts | 95° |
| 2026-05-07 23:23 | 32.66105 | -95.80408 | 22962 ft | 457 kts | 96° |
| 2026-05-07 23:23 | 32.65841 | -95.76645 | 23247 ft | 461 kts | 96° |
| 2026-05-07 23:24 | 32.65578 | -95.72859 | 23566 ft | 463 kts | 96° |
| 2026-05-07 23:24 | 32.65312 | -95.69056 | 23877 ft | 466 kts | 96° |
| 2026-05-07 23:24 | 32.65044 | -95.65224 | 24184 ft | 468 kts | 97° |
| 2026-05-07 23:24 | 32.64772 | -95.61378 | 24519 ft | 470 kts | 97° |
| 2026-05-07 23:25 | 32.64497 | -95.57517 | 24814 ft | 473 kts | 97° |
| 2026-05-07 23:25 | 32.64221 | -95.53631 | 25091 ft | 476 kts | 97° |
| 2026-05-07 23:25 | 32.63940 | -95.49722 | 25385 ft | 478 kts | 97° |
| 2026-05-07 23:25 | 32.63655 | -95.45789 | 25677 ft | 480 kts | 98° |
| 2026-05-07 23:26 | 32.63366 | -95.41845 | 25959 ft | 483 kts | 98° |
| 2026-05-07 23:26 | 32.63079 | -95.37878 | 26233 ft | 486 kts | 98° |
| 2026-05-07 23:26 | 32.62787 | -95.33890 | 26504 ft | 488 kts | 98° |
| 2026-05-07 23:26 | 32.62493 | -95.29881 | 26738 ft | 490 kts | 98° |
| 2026-05-07 23:27 | 32.61897 | -95.21813 | 27223 ft | 495 kts | 99° |
| 2026-05-07 23:27 | 32.61598 | -95.17755 | 27508 ft | 496 kts | 99° |
| 2026-05-07 23:27 | 32.61294 | -95.13689 | 27776 ft | 497 kts | 99° |
| 2026-05-07 23:28 | 32.60988 | -95.09620 | 28031 ft | 499 kts | 100° |
| 2026-05-07 23:28 | 32.60676 | -95.05531 | 28262 ft | 501 kts | 100° |
| 2026-05-07 23:28 | 32.60368 | -95.01421 | 28512 ft | 503 kts | 100° |
| 2026-05-07 23:28 | 32.60050 | -94.97291 | 28706 ft | 506 kts | 99° |
| 2026-05-07 23:29 | 32.59734 | -94.93143 | 28931 ft | 507 kts | 99° |
| 2026-05-07 23:29 | 32.59417 | -94.88989 | 29165 ft | 509 kts | 100° |
| 2026-05-07 23:29 | 32.59092 | -94.84764 | 29390 ft | 510 kts | 100° |
| 2026-05-07 23:29 | 32.58664 | -94.80605 | 29614 ft | 509 kts | 104° |
| 2026-05-07 23:30 | 32.58028 | -94.76552 | 29854 ft | 507 kts | 108° |
| 2026-05-07 23:30 | 32.57161 | -94.72516 | 30015 ft | 507 kts | 112° |
| 2026-05-07 23:30 | 32.56093 | -94.68561 | 30233 ft | 505 kts | 115° |
| 2026-05-07 23:30 | 32.54969 | -94.64625 | 30471 ft | 506 kts | 116° |
| 2026-05-07 23:31 | 32.53828 | -94.60686 | 30650 ft | 508 kts | 115° |
| 2026-05-07 23:31 | 32.52688 | -94.56728 | 30862 ft | 510 kts | 115° |
| 2026-05-07 23:31 | 32.51553 | -94.52762 | 31094 ft | 510 kts | 115° |
| 2026-05-07 23:31 | 32.50415 | -94.48779 | 31231 ft | 514 kts | 115° |
| 2026-05-07 23:32 | 32.49278 | -94.44775 | 31421 ft | 515 kts | 114° |
| 2026-05-07 23:32 | 32.48144 | -94.40765 | 31689 ft | 514 kts | 115° |
| 2026-05-07 23:32 | 32.47010 | -94.36772 | 32027 ft | 512 kts | 115° |
| 2026-05-07 23:32 | 32.45869 | -94.32774 | 32225 ft | 513 kts | 115° |
| 2026-05-07 23:33 | 32.44728 | -94.28780 | 32380 ft | 514 kts | 115° |
| 2026-05-07 23:33 | 32.43584 | -94.24777 | 32561 ft | 515 kts | 115° |
| 2026-05-07 23:33 | 32.42439 | -94.20767 | 32787 ft | 514 kts | 115° |
| 2026-05-07 23:33 | 32.41296 | -94.16773 | 33000 ft | 514 kts | 116° |
| 2026-05-07 23:34 | 32.40154 | -94.12783 | 33207 ft | 513 kts | 116° |
| 2026-05-07 23:34 | 32.39008 | -94.08796 | 33392 ft | 514 kts | 115° |
| 2026-05-07 23:34 | 32.36697 | -94.00779 | 33615 ft | 518 kts | 115° |
| 2026-05-07 23:35 | 32.35534 | -93.96748 | 33744 ft | 519 kts | 116° |
| 2026-05-07 23:35 | 32.34369 | -93.92714 | 33917 ft | 520 kts | 116° |
| 2026-05-07 23:35 | 32.33199 | -93.88670 | 34036 ft | 522 kts | 115° |
| 2026-05-07 23:35 | 32.32026 | -93.84614 | 34174 ft | 523 kts | 115° |
| 2026-05-07 23:36 | 32.30851 | -93.80559 | 34341 ft | 523 kts | 115° |
| 2026-05-07 23:36 | 32.29675 | -93.76503 | 34483 ft | 524 kts | 115° |
| 2026-05-07 23:36 | 32.28493 | -93.72440 | 34628 ft | 525 kts | 115° |
| 2026-05-07 23:36 | 32.27309 | -93.68366 | 34742 ft | 526 kts | 115° |
| 2026-05-07 23:37 | 32.26120 | -93.64288 | 34877 ft | 527 kts | 115° |
| 2026-05-07 23:37 | 32.24928 | -93.60199 | 34989 ft | 529 kts | 115° |
| 2026-05-07 23:37 | 32.22333 | -93.52121 | 35000 ft | 525 kts | 121° |
| 2026-05-07 23:38 | 32.18969 | -93.44579 | 34998 ft | 516 kts | 130° |
| 2026-05-07 23:38 | 32.14890 | -93.37752 | 34998 ft | 506 kts | 136° |
| 2026-05-07 23:39 | 32.10561 | -93.31207 | 34998 ft | 507 kts | 137° |
| 2026-05-07 23:39 | 32.06247 | -93.24663 | 34993 ft | 505 kts | 137° |
| 2026-05-07 23:40 | 32.01947 | -93.18117 | 34995 ft | 508 kts | 137° |
| 2026-05-07 23:40 | 31.97645 | -93.11556 | 34987 ft | 505 kts | 137° |
| 2026-05-07 23:41 | 31.93366 | -93.05035 | 34999 ft | 504 kts | 137° |
| 2026-05-07 23:41 | 31.89049 | -92.98483 | 34995 ft | 506 kts | 137° |
| 2026-05-07 23:42 | 31.84771 | -92.91991 | 34999 ft | 506 kts | 137° |
| 2026-05-07 23:42 | 31.80464 | -92.85465 | 34993 ft | 506 kts | 137° |
| 2026-05-07 23:43 | 31.76140 | -92.78921 | 34991 ft | 504 kts | 137° |
| 2026-05-07 23:43 | 31.71873 | -92.72478 | 34987 ft | 504 kts | 137° |
| 2026-05-07 23:44 | 31.67565 | -92.65990 | 34985 ft | 505 kts | 137° |
| 2026-05-07 23:44 | 31.63257 | -92.59511 | 34980 ft | 505 kts | 137° |
| 2026-05-07 23:45 | 31.58953 | -92.53037 | 34979 ft | 503 kts | 137° |
| 2026-05-07 23:45 | 31.54662 | -92.46606 | 34985 ft | 502 kts | 136° |
| 2026-05-07 23:46 | 31.50352 | -92.40157 | 34987 ft | 504 kts | 137° |
| 2026-05-07 23:46 | 31.46042 | -92.33714 | 34990 ft | 503 kts | 137° |
| 2026-05-07 23:47 | 31.41730 | -92.27274 | 34991 ft | 502 kts | 137° |
| 2026-05-07 23:47 | 31.37425 | -92.20862 | 34992 ft | 502 kts | 137° |
| 2026-05-07 23:48 | 31.33120 | -92.14461 | 34991 ft | 501 kts | 137° |
| 2026-05-07 23:48 | 31.28819 | -92.08076 | 34988 ft | 502 kts | 137° |
| 2026-05-07 23:49 | 31.24508 | -92.01688 | 34984 ft | 501 kts | 137° |
| 2026-05-07 23:49 | 31.20201 | -91.95314 | 34978 ft | 501 kts | 137° |
| 2026-05-07 23:50 | 31.15900 | -91.88957 | 34975 ft | 500 kts | 137° |
| 2026-05-07 23:50 | 31.11582 | -91.82591 | 34966 ft | 500 kts | 137° |
| 2026-05-07 23:51 | 31.07262 | -91.76234 | 34956 ft | 502 kts | 137° |
| 2026-05-07 23:51 | 31.02936 | -91.69872 | 34956 ft | 503 kts | 137° |
| 2026-05-07 23:52 | 30.98605 | -91.63512 | 34951 ft | 502 kts | 137° |
| 2026-05-07 23:52 | 30.94279 | -91.57171 | 34955 ft | 501 kts | 137° |
| 2026-05-07 23:53 | 30.89941 | -91.50827 | 34961 ft | 502 kts | 137° |
| 2026-05-07 23:53 | 30.85609 | -91.44497 | 34962 ft | 500 kts | 137° |
| 2026-05-07 23:54 | 30.81274 | -91.38174 | 34964 ft | 500 kts | 137° |
| 2026-05-07 23:54 | 30.76928 | -91.31847 | 34964 ft | 499 kts | 137° |
| 2026-05-07 23:55 | 30.72590 | -91.25545 | 34974 ft | 500 kts | 137° |
| 2026-05-07 23:55 | 30.68258 | -91.19256 | 34973 ft | 500 kts | 137° |
| 2026-05-07 23:56 | 30.63916 | -91.12964 | 34971 ft | 500 kts | 137° |
| 2026-05-07 23:56 | 30.59611 | -91.06732 | 34971 ft | 498 kts | 137° |
| 2026-05-07 23:57 | 30.55274 | -91.00467 | 34974 ft | 498 kts | 137° |
| 2026-05-07 23:57 | 30.50932 | -90.94210 | 34976 ft | 499 kts | 137° |
| 2026-05-07 23:58 | 30.46603 | -90.87974 | 34975 ft | 497 kts | 137° |
| 2026-05-07 23:58 | 30.42268 | -90.81742 | 34979 ft | 497 kts | 137° |
| 2026-05-07 23:59 | 30.37935 | -90.75525 | 34977 ft | 496 kts | 137° |
| 2026-05-07 23:59 | 30.33605 | -90.69318 | 34977 ft | 496 kts | 137° |
| 2026-05-08 00:00 | 30.29262 | -90.63107 | 34976 ft | 497 kts | 137° |
| 2026-05-08 00:00 | 30.24922 | -90.56907 | 34979 ft | 497 kts | 137° |
| 2026-05-08 00:01 | 30.20586 | -90.50716 | 34981 ft | 496 kts | 137° |
| 2026-05-08 00:01 | 30.16238 | -90.44528 | 34981 ft | 497 kts | 136° |
| 2026-05-08 00:02 | 30.11885 | -90.38337 | 34981 ft | 497 kts | 137° |
| 2026-05-08 00:02 | 30.07542 | -90.32164 | 34979 ft | 494 kts | 137° |
| 2026-05-08 00:03 | 30.03208 | -90.26019 | 34982 ft | 495 kts | 137° |
| 2026-05-08 00:03 | 29.98877 | -90.19888 | 34980 ft | 493 kts | 137° |
| 2026-05-08 00:04 | 29.94553 | -90.13772 | 34980 ft | 492 kts | 137° |
| 2026-05-08 00:04 | 29.90220 | -90.07658 | 34981 ft | 493 kts | 137° |
| 2026-05-08 00:05 | 29.85894 | -90.01558 | 34980 ft | 493 kts | 137° |
| 2026-05-08 00:05 | 29.81517 | -89.95509 | 34979 ft | 492 kts | 138° |
| 2026-05-08 00:06 | 29.77092 | -89.89502 | 34981 ft | 493 kts | 138° |
| 2026-05-08 00:06 | 29.72670 | -89.83482 | 34975 ft | 494 kts | 137° |
| 2026-05-08 00:07 | 29.68242 | -89.77458 | 34973 ft | 494 kts | 138° |
| 2026-05-08 00:07 | 29.63800 | -89.71438 | 34968 ft | 495 kts | 137° |
| 2026-05-08 00:08 | 29.59361 | -89.65420 | 34960 ft | 494 kts | 137° |
| 2026-05-08 00:08 | 29.54912 | -89.59396 | 34960 ft | 495 kts | 137° |
| 2026-05-08 00:09 | 29.50462 | -89.53378 | 34960 ft | 495 kts | 137° |
| 2026-05-08 00:09 | 29.46012 | -89.47369 | 34956 ft | 495 kts | 137° |
| 2026-05-08 00:10 | 29.41552 | -89.41354 | 34957 ft | 496 kts | 137° |
| 2026-05-08 00:10 | 29.37089 | -89.35346 | 34956 ft | 496 kts | 137° |
| 2026-05-08 00:11 | 29.32615 | -89.29331 | 34954 ft | 495 kts | 137° |
| 2026-05-08 00:11 | 29.28145 | -89.23331 | 34954 ft | 496 kts | 137° |
| 2026-05-08 00:12 | 29.23641 | -89.17299 | 34955 ft | 502 kts | 137° |
| 2026-05-08 00:12 | 29.19094 | -89.11212 | 34955 ft | 505 kts | 137° |
| 2026-05-08 00:13 | 29.14537 | -89.05118 | 34958 ft | 504 kts | 137° |
| 2026-05-08 00:13 | 29.09979 | -88.99036 | 34967 ft | 505 kts | 137° |
| 2026-05-08 00:14 | 29.05421 | -88.92956 | 34972 ft | 504 kts | 137° |
| 2026-05-08 00:14 | 29.00854 | -88.86880 | 34972 ft | 505 kts | 137° |
| 2026-05-08 00:15 | 28.96278 | -88.80798 | 34972 ft | 506 kts | 137° |
| 2026-05-08 00:15 | 28.91702 | -88.74722 | 34964 ft | 505 kts | 137° |
| 2026-05-08 00:16 | 28.87128 | -88.68654 | 34969 ft | 504 kts | 137° |
| 2026-05-08 00:16 | 28.82586 | -88.62566 | 34969 ft | 505 kts | 136° |
| 2026-05-08 00:17 | 28.78052 | -88.56482 | 34966 ft | 504 kts | 136° |
| 2026-05-08 00:17 | 28.73517 | -88.50407 | 34970 ft | 504 kts | 136° |
| 2026-05-08 00:18 | 28.68973 | -88.44334 | 34968 ft | 505 kts | 136° |
| 2026-05-08 00:18 | 28.64428 | -88.38264 | 34970 ft | 504 kts | 136° |
| 2026-05-08 00:19 | 28.59887 | -88.32207 | 34970 ft | 504 kts | 136° |
| 2026-05-08 00:19 | 28.55348 | -88.26164 | 34974 ft | 504 kts | 136° |
| 2026-05-08 00:20 | 28.50806 | -88.20125 | 34977 ft | 503 kts | 136° |
| 2026-05-08 00:20 | 28.46268 | -88.14097 | 34972 ft | 502 kts | 136° |
| 2026-05-08 00:21 | 28.41880 | -88.07919 | 34972 ft | 506 kts | 130° |
| 2026-05-08 00:21 | 28.38170 | -88.01093 | 34966 ft | 512 kts | 122° |
| 2026-05-08 00:22 | 28.35312 | -87.93665 | 34974 ft | 517 kts | 112° |
| 2026-05-08 00:22 | 28.33079 | -87.85921 | 34971 ft | 518 kts | 110° |
| 2026-05-08 00:23 | 28.30880 | -87.78152 | 34971 ft | 518 kts | 111° |
| 2026-05-08 00:23 | 28.28652 | -87.70398 | 34971 ft | 518 kts | 111° |
| 2026-05-08 00:24 | 28.26406 | -87.62659 | 34977 ft | 518 kts | 111° |
| 2026-05-08 00:24 | 28.24152 | -87.54916 | 34972 ft | 519 kts | 111° |
| 2026-05-08 00:25 | 28.21892 | -87.47177 | 34976 ft | 519 kts | 111° |
| 2026-05-08 00:25 | 28.19629 | -87.39442 | 34972 ft | 518 kts | 111° |
| 2026-05-08 00:26 | 28.17361 | -87.31705 | 34967 ft | 519 kts | 111° |
| 2026-05-08 00:26 | 28.15089 | -87.23969 | 34970 ft | 519 kts | 111° |
| 2026-05-08 00:27 | 28.12811 | -87.16241 | 34975 ft | 519 kts | 111° |
| 2026-05-08 00:27 | 28.10528 | -87.08515 | 34971 ft | 518 kts | 111° |
| 2026-05-08 00:28 | 28.08249 | -87.00809 | 34975 ft | 518 kts | 111° |
| 2026-05-08 00:28 | 28.05963 | -86.93098 | 34972 ft | 518 kts | 111° |
| 2026-05-08 00:29 | 28.03676 | -86.85397 | 34975 ft | 517 kts | 111° |
| 2026-05-08 00:29 | 28.01386 | -86.77711 | 34978 ft | 517 kts | 111° |
| 2026-05-08 00:30 | 27.99137 | -86.70047 | 34981 ft | 517 kts | 110° |
| 2026-05-08 00:30 | 27.96909 | -86.62324 | 34979 ft | 518 kts | 110° |
| 2026-05-08 00:31 | 27.94677 | -86.54610 | 34981 ft | 518 kts | 110° |
| 2026-05-08 00:31 | 27.92438 | -86.46900 | 34982 ft | 518 kts | 110° |
| 2026-05-08 00:32 | 27.90183 | -86.39162 | 34985 ft | 522 kts | 110° |
| 2026-05-08 00:32 | 27.87914 | -86.31385 | 34985 ft | 522 kts | 111° |
| 2026-05-08 00:33 | 27.85640 | -86.23619 | 34991 ft | 522 kts | 111° |
| 2026-05-08 00:33 | 27.83365 | -86.15861 | 34990 ft | 521 kts | 111° |
| 2026-05-08 00:34 | 27.81085 | -86.08108 | 34988 ft | 522 kts | 111° |
| 2026-05-08 00:34 | 27.78800 | -86.00356 | 34992 ft | 522 kts | 111° |
| 2026-05-08 00:35 | 27.76512 | -85.92609 | 34994 ft | 521 kts | 111° |
| 2026-05-08 00:35 | 27.74219 | -85.84866 | 34993 ft | 521 kts | 111° |
| 2026-05-08 00:36 | 27.71926 | -85.77132 | 34995 ft | 520 kts | 111° |
| 2026-05-08 00:36 | 27.69630 | -85.69416 | 34996 ft | 520 kts | 111° |
| 2026-05-08 00:37 | 27.67328 | -85.61689 | 34993 ft | 519 kts | 111° |
| 2026-05-08 00:38 | 27.63882 | -85.50155 | 34995 ft | 519 kts | 110° |
| 2026-05-08 00:38 | 27.61579 | -85.42464 | 34994 ft | 519 kts | 111° |
| 2026-05-08 00:39 | 27.59366 | -85.34740 | 34994 ft | 520 kts | 108° |
| 2026-05-08 00:39 | 27.57791 | -85.26798 | 34993 ft | 521 kts | 102° |
| 2026-05-08 00:40 | 27.56445 | -85.18796 | 34994 ft | 521 kts | 102° |
| 2026-05-08 00:40 | 27.55065 | -85.10815 | 34995 ft | 521 kts | 103° |
| 2026-05-08 00:41 | 27.53660 | -85.02831 | 34995 ft | 521 kts | 102° |
| 2026-05-08 00:41 | 27.52262 | -84.94846 | 34993 ft | 521 kts | 102° |
| 2026-05-08 00:42 | 27.50852 | -84.86881 | 34994 ft | 520 kts | 102° |
| 2026-05-08 00:42 | 27.49442 | -84.78920 | 34995 ft | 519 kts | 102° |
| 2026-05-08 00:43 | 27.48028 | -84.70969 | 34996 ft | 519 kts | 102° |
| 2026-05-08 00:43 | 27.46609 | -84.63023 | 34996 ft | 519 kts | 102° |
| 2026-05-08 00:44 | 27.45191 | -84.55089 | 35001 ft | 518 kts | 102° |
| 2026-05-08 00:44 | 27.43770 | -84.47165 | 35003 ft | 519 kts | 102° |
| 2026-05-08 00:45 | 27.42341 | -84.39230 | 35003 ft | 519 kts | 102° |
| 2026-05-08 00:45 | 27.40900 | -84.31270 | 35006 ft | 519 kts | 103° |
| 2026-05-08 00:46 | 27.39459 | -84.23345 | 35011 ft | 518 kts | 103° |
| 2026-05-08 00:46 | 27.38017 | -84.15427 | 35009 ft | 518 kts | 103° |
| 2026-05-08 00:47 | 27.36571 | -84.07516 | 35013 ft | 517 kts | 103° |
| 2026-05-08 00:47 | 27.35124 | -83.99616 | 35016 ft | 517 kts | 103° |
| 2026-05-08 00:48 | 27.33671 | -83.91717 | 35016 ft | 517 kts | 103° |
| 2026-05-08 00:48 | 27.32217 | -83.83830 | 35017 ft | 518 kts | 102° |
| 2026-05-08 00:49 | 27.30757 | -83.75936 | 35016 ft | 517 kts | 102° |
| 2026-05-08 00:49 | 27.29293 | -83.68046 | 35018 ft | 517 kts | 102° |
| 2026-05-08 00:50 | 27.27822 | -83.60157 | 35015 ft | 517 kts | 102° |
| 2026-05-08 00:50 | 27.26351 | -83.52278 | 35017 ft | 516 kts | 102° |
| 2026-05-08 00:51 | 27.24878 | -83.44420 | 35017 ft | 515 kts | 102° |
| 2026-05-08 00:51 | 27.23400 | -83.36565 | 35017 ft | 515 kts | 102° |
| 2026-05-08 00:52 | 27.21917 | -83.28702 | 35016 ft | 515 kts | 103° |
| 2026-05-08 00:52 | 27.20435 | -83.20862 | 35017 ft | 514 kts | 103° |
| 2026-05-08 00:53 | 27.18949 | -83.13030 | 35015 ft | 514 kts | 103° |
| 2026-05-08 00:53 | 27.17458 | -83.05205 | 35017 ft | 514 kts | 103° |
| 2026-05-08 00:54 | 27.15964 | -82.97388 | 35012 ft | 513 kts | 103° |
| 2026-05-08 00:54 | 27.14256 | -82.89638 | 35013 ft | 513 kts | 108° |
| 2026-05-08 00:55 | 27.11778 | -82.82175 | 35013 ft | 511 kts | 115° |
| 2026-05-08 00:55 | 27.08545 | -82.75175 | 35014 ft | 509 kts | 123° |
| 2026-05-08 00:56 | 27.04830 | -82.68438 | 35012 ft | 509 kts | 124° |
| 2026-05-08 00:56 | 27.01110 | -82.61718 | 35014 ft | 508 kts | 124° |
| 2026-05-08 00:57 | 26.97408 | -82.54992 | 35012 ft | 508 kts | 123° |
| 2026-05-08 00:57 | 26.93561 | -82.48395 | 35007 ft | 505 kts | 128° |
| 2026-05-08 00:58 | 26.89088 | -82.42376 | 35000 ft | 502 kts | 136° |
| 2026-05-08 00:58 | 26.86641 | -82.39639 | 34766 ft | 492 kts | 140° |
| 2026-05-08 00:58 | 26.84114 | -82.37129 | 34487 ft | 481 kts | 142° |
| 2026-05-08 00:58 | 26.81586 | -82.34718 | 34153 ft | 477 kts | 143° |
| 2026-05-08 00:59 | 26.79063 | -82.32320 | 33682 ft | 474 kts | 143° |
| 2026-05-08 00:59 | 26.76557 | -82.29936 | 33089 ft | 474 kts | 143° |
| 2026-05-08 00:59 | 26.74051 | -82.27545 | 32454 ft | 475 kts | 143° |
| 2026-05-08 00:59 | 26.71542 | -82.25149 | 31777 ft | 476 kts | 143° |
| 2026-05-08 01:00 | 26.69032 | -82.22749 | 31089 ft | 477 kts | 143° |
| 2026-05-08 01:00 | 26.66514 | -82.20342 | 30422 ft | 477 kts | 143° |
| 2026-05-08 01:00 | 26.64014 | -82.17949 | 29971 ft | 472 kts | 143° |
| 2026-05-08 01:00 | 26.61505 | -82.15549 | 29520 ft | 467 kts | 143° |
| 2026-05-08 01:01 | 26.59054 | -82.13203 | 29061 ft | 462 kts | 143° |
| 2026-05-08 01:01 | 26.56626 | -82.10885 | 28610 ft | 458 kts | 143° |
| 2026-05-08 01:01 | 26.54217 | -82.08588 | 28160 ft | 454 kts | 143° |
| 2026-05-08 01:01 | 26.51843 | -82.06301 | 27707 ft | 451 kts | 141° |
| 2026-05-08 01:02 | 26.49526 | -82.03983 | 27264 ft | 447 kts | 141° |
| 2026-05-08 01:02 | 26.47237 | -82.01664 | 26820 ft | 443 kts | 141° |
| 2026-05-08 01:02 | 26.44968 | -81.99362 | 26364 ft | 440 kts | 141° |
| 2026-05-08 01:02 | 26.42714 | -81.97081 | 25913 ft | 436 kts | 141° |
| 2026-05-08 01:03 | 26.40475 | -81.94822 | 25460 ft | 433 kts | 141° |
| 2026-05-08 01:03 | 26.38250 | -81.92580 | 25004 ft | 430 kts | 141° |
| 2026-05-08 01:03 | 26.36040 | -81.90356 | 24550 ft | 427 kts | 141° |
| 2026-05-08 01:03 | 26.33844 | -81.88149 | 24101 ft | 424 kts | 140° |
| 2026-05-08 01:04 | 26.31662 | -81.85957 | 23652 ft | 421 kts | 140° |
| 2026-05-08 01:04 | 26.29494 | -81.83779 | 23204 ft | 419 kts | 140° |
| 2026-05-08 01:04 | 26.27337 | -81.81616 | 22750 ft | 417 kts | 141° |
| 2026-05-08 01:04 | 26.25226 | -81.79421 | 22302 ft | 416 kts | 135° |
| 2026-05-08 01:05 | 26.23403 | -81.76935 | 21859 ft | 416 kts | 126° |
| 2026-05-08 01:05 | 26.21948 | -81.74159 | 21425 ft | 415 kts | 117° |
| 2026-05-08 01:05 | 26.20707 | -81.71323 | 20998 ft | 413 kts | 116° |
| 2026-05-08 01:05 | 26.19489 | -81.68446 | 20565 ft | 411 kts | 115° |
| 2026-05-08 01:06 | 26.18260 | -81.65544 | 20127 ft | 409 kts | 115° |
| 2026-05-08 01:06 | 26.17058 | -81.62736 | 19697 ft | 408 kts | 116° |
| 2026-05-08 01:06 | 26.15828 | -81.59886 | 19262 ft | 406 kts | 115° |
| 2026-05-08 01:06 | 26.14607 | -81.57072 | 18828 ft | 404 kts | 115° |
| 2026-05-08 01:07 | 26.13388 | -81.54272 | 18397 ft | 402 kts | 115° |
| 2026-05-08 01:07 | 26.12174 | -81.51484 | 17959 ft | 400 kts | 115° |
| 2026-05-08 01:07 | 26.10967 | -81.48713 | 17514 ft | 398 kts | 115° |
| 2026-05-08 01:07 | 26.09747 | -81.45918 | 17071 ft | 397 kts | 115° |
| 2026-05-08 01:08 | 26.08548 | -81.43172 | 16631 ft | 394 kts | 115° |
| 2026-05-08 01:08 | 26.07357 | -81.40448 | 16218 ft | 391 kts | 115° |
| 2026-05-08 01:08 | 26.06175 | -81.37743 | 15814 ft | 388 kts | 115° |
| 2026-05-08 01:08 | 26.05006 | -81.35061 | 15405 ft | 385 kts | 115° |
| 2026-05-08 01:09 | 26.03846 | -81.32394 | 14969 ft | 383 kts | 116° |
| 2026-05-08 01:09 | 26.02692 | -81.29745 | 14534 ft | 380 kts | 116° |
| 2026-05-08 01:09 | 26.01546 | -81.27117 | 14104 ft | 377 kts | 116° |
| 2026-05-08 01:09 | 26.00408 | -81.24506 | 13674 ft | 375 kts | 116° |
| 2026-05-08 01:10 | 25.99279 | -81.21918 | 13233 ft | 372 kts | 116° |
| 2026-05-08 01:10 | 25.98156 | -81.19347 | 12793 ft | 369 kts | 116° |
| 2026-05-08 01:10 | 25.97038 | -81.16795 | 12349 ft | 367 kts | 116° |
| 2026-05-08 01:10 | 25.95929 | -81.14263 | 11905 ft | 365 kts | 116° |
| 2026-05-08 01:11 | 25.94826 | -81.11745 | 11461 ft | 363 kts | 116° |
| 2026-05-08 01:11 | 25.93730 | -81.09241 | 11010 ft | 361 kts | 116° |
| 2026-05-08 01:11 | 25.92637 | -81.06749 | 10568 ft | 359 kts | 116° |
| 2026-05-08 01:11 | 25.91556 | -81.04282 | 10268 ft | 352 kts | 115° |
| 2026-05-08 01:12 | 25.90577 | -81.01840 | 10115 ft | 340 kts | 113° |
| 2026-05-08 01:12 | 25.89665 | -80.99462 | 9986 ft | 329 kts | 112° |
| 2026-05-08 01:12 | 25.88784 | -80.97146 | 9728 ft | 324 kts | 112° |
| 2026-05-08 01:12 | 25.87913 | -80.94865 | 9440 ft | 319 kts | 112° |
| 2026-05-08 01:13 | 25.87054 | -80.92618 | 9167 ft | 314 kts | 112° |
| 2026-05-08 01:13 | 25.86210 | -80.90418 | 9014 ft | 305 kts | 112° |
| 2026-05-08 01:13 | 25.85395 | -80.88296 | 8866 ft | 297 kts | 112° |
| 2026-05-08 01:13 | 25.84645 | -80.86176 | 8562 ft | 294 kts | 104° |
| 2026-05-08 01:14 | 25.84367 | -80.83962 | 8260 ft | 290 kts | 88° |
| 2026-05-08 01:14 | 25.84494 | -80.81742 | 7952 ft | 288 kts | 84° |
| 2026-05-08 01:14 | 25.84685 | -80.79539 | 7641 ft | 286 kts | 83° |
| 2026-05-08 01:14 | 25.84879 | -80.77348 | 7327 ft | 285 kts | 83° |
| 2026-05-08 01:15 | 25.85063 | -80.75178 | 6969 ft | 282 kts | 84° |
| 2026-05-08 01:15 | 25.85240 | -80.73024 | 6507 ft | 281 kts | 84° |
| 2026-05-08 01:15 | 25.85412 | -80.70876 | 6062 ft | 279 kts | 84° |
| 2026-05-08 01:15 | 25.85580 | -80.68743 | 5671 ft | 278 kts | 84° |
| 2026-05-08 01:16 | 25.85747 | -80.66614 | 5307 ft | 277 kts | 84° |
| 2026-05-08 01:16 | 25.85913 | -80.64484 | 4956 ft | 277 kts | 84° |
| 2026-05-08 01:16 | 25.86077 | -80.62359 | 4605 ft | 277 kts | 84° |
| 2026-05-08 01:16 | 25.86242 | -80.60232 | 4263 ft | 277 kts | 84° |
| 2026-05-08 01:17 | 25.86406 | -80.58102 | 3930 ft | 277 kts | 84° |
| 2026-05-08 01:17 | 25.86569 | -80.55978 | 3593 ft | 277 kts | 84° |
| 2026-05-08 01:17 | 25.86732 | -80.53858 | 3501 ft | 266 kts | 84° |
| 2026-05-08 01:17 | 25.86881 | -80.51887 | 3458 ft | 254 kts | 84° |
| 2026-05-08 01:18 | 25.87026 | -80.49979 | 3395 ft | 244 kts | 84° |
| 2026-05-08 01:18 | 25.87168 | -80.48109 | 3250 ft | 243 kts | 84° |
| 2026-05-08 01:18 | 25.87311 | -80.46242 | 3094 ft | 243 kts | 84° |
| 2026-05-08 01:18 | 25.87254 | -80.44370 | 2862 ft | 244 kts | 107° |
| 2026-05-08 01:19 | 25.86500 | -80.42692 | 2602 ft | 244 kts | 123° |
| 2026-05-08 01:19 | 25.85546 | -80.41111 | 2234 ft | 249 kts | 123° |
| 2026-05-08 01:19 | 25.84653 | -80.39489 | 1803 ft | 244 kts | 121° |
| 2026-05-08 01:19 | 25.83836 | -80.37874 | 1480 ft | 231 kts | 120° |
| 2026-05-08 01:20 | 25.83073 | -80.36361 | 1196 ft | 219 kts | 121° |
| 2026-05-08 01:20 | 25.82361 | -80.34971 | 1011 ft | 201 kts | 121° |
| 2026-05-08 01:20 | 25.81691 | -80.33668 | 750 ft | 188 kts | 121° |
| 2026-05-08 01:20 | 25.81054 | -80.32443 | 473 ft | 176 kts | 121° |
| 2026-05-08 01:21 | 25.80487 | -80.31293 | 264 ft | 160 kts | 120° |
| 2026-05-08 01:21 | 25.79954 | -80.30264 | 55 ft | 147 kts | 121° |
| 2026-05-08 01:21 | 25.79485 | -80.29358 | 14 ft | 112 kts | 121° |
| 2026-05-08 01:21 | 25.79248 | -80.28893 | 15 ft | 25 kts | 117° |
| 2026-05-08 01:22 | 25.79201 | -80.28735 | 15 ft | 7 kts | 91° |
| 2026-05-08 01:22 | 25.79204 | -80.28685 | 15 ft | 7 kts | 76° |
| 2026-05-08 01:22 | 25.79234 | -80.28638 | 15 ft | 8 kts | 36° |
| 2026-05-08 01:22 | 25.79286 | -80.28607 | 15 ft | 8 kts | 4° |
| 2026-05-08 01:23 | 25.79337 | -80.28651 | 15 ft | 10 kts | 307° |
| 2026-05-08 01:23 | 25.79376 | -80.28722 | 15 ft | 11 kts | 299° |
| 2026-05-08 01:23 | 25.79426 | -80.28790 | 15 ft | 12 kts | 337° |
| 2026-05-08 01:23 | 25.79512 | -80.28804 | 15 ft | 12 kts | 354° |
| 2026-05-08 01:24 | 25.79605 | -80.28809 | 15 ft | 13 kts | 358° |
| 2026-05-08 01:24 | 25.79704 | -80.28813 | 14 ft | 14 kts | 359° |
| 2026-05-08 01:24 | 25.79805 | -80.28816 | 14 ft | 14 kts | 357° |
| 2026-05-08 01:24 | 25.79892 | -80.28817 | 14 ft | 10 kts | 15° |
| 2026-05-08 01:25 | 25.79933 | -80.28752 | 14 ft | 11 kts | 78° |
| 2026-05-08 01:25 | 25.79940 | -80.28661 | 14 ft | 12 kts | 89° |
| 2026-05-08 01:25 | 25.79942 | -80.28565 | 14 ft | 12 kts | 88° |
| 2026-05-08 01:25 | 25.79946 | -80.28478 | 14 ft | 8 kts | 87° |
| 2026-05-08 01:26 | 25.79947 | -80.28455 | 14 ft | 0 kts | 87° |
| 2026-05-08 01:26 | 25.79948 | -80.28452 | 14 ft | 3 kts | 87° |
| 2026-05-08 01:26 | 25.79951 | -80.28376 | 14 ft | 12 kts | 87° |
| 2026-05-08 01:26 | 25.79955 | -80.28279 | 14 ft | 12 kts | 87° |
| 2026-05-08 01:27 | 25.79960 | -80.28177 | 14 ft | 13 kts | 88° |
| 2026-05-08 01:27 | 25.79963 | -80.28071 | 14 ft | 14 kts | 89° |
| 2026-05-08 01:27 | 25.79966 | -80.27961 | 13 ft | 14 kts | 84° |
| 2026-05-08 01:27 | 25.79975 | -80.27849 | 13 ft | 14 kts | 87° |
| 2026-05-08 01:28 | 25.79979 | -80.27732 | 13 ft | 15 kts | 89° |
| 2026-05-08 01:28 | 25.79982 | -80.27613 | 13 ft | 15 kts | 87° |
| 2026-05-08 01:28 | 25.79987 | -80.27493 | 13 ft | 15 kts | 88° |
| 2026-05-08 01:28 | 25.79992 | -80.27372 | 13 ft | 15 kts | 88° |
| 2026-05-08 01:29 | 25.79997 | -80.27248 | 13 ft | 16 kts | 87° |
| 2026-05-08 01:29 | 25.79997 | -80.27125 | 13 ft | 15 kts | 110° |
| 2026-05-08 01:29 | 25.79940 | -80.27031 | 13 ft | 8 kts | 126° |
| 2026-05-08 01:29 | 25.79892 | -80.26988 | 13 ft | 9 kts | 175° |
| 2026-05-08 01:30 | 25.79829 | -80.27018 | 13 ft | 10 kts | 216° |
| 2026-05-08 01:30 | 25.79773 | -80.27072 | 13 ft | 11 kts | 221° |
| 2026-05-08 01:30 | 25.79735 | -80.27145 | 13 ft | 11 kts | 264° |
| 2026-05-08 01:30 | 25.79734 | -80.27216 | 13 ft | 6 kts | 270° |
| 2026-05-08 01:31 | 25.79750 | -80.27243 | 13 ft | 5 kts | 352° |
| 2026-05-08 01:31 | 25.79756 | -80.27244 | 13 ft | 1 kts | 353° |
| 2026-05-08 01:31 | 25.79774 | -80.27244 | 13 ft | 3 kts | 4° |
| 2026-05-08 01:31 | 25.79787 | -80.27243 | 13 ft | 0 kts | 2° |
| 2026-05-08 01:32 | 25.79790 | -80.27243 | 13 ft | 0 kts | 3° |